Time;durP1;ratioP1;P1;durP2;ratioP2;P2;SDS_P1;SDS_P2;PMS_P1;PMS_P2;Temp;Humidity;BMP_temperature;BMP_pressure;BME280_temperature;BME280_humidity;BME280_pressure;Samples;Min_cycle;Max_cycle;Signal;HPM_P1;HPM_P2
2023/10/29 00:00:09;;;;;;;0.40;0.40;;;15.80;72.60;;;;;;5053214;28;20029;-74
2023/10/29 00:02:35;;;;;;;0.32;0.32;;;15.80;72.50;;;;;;5050970;28;20021;-74
2023/10/29 00:05:01;;;;;;;0.40;0.40;;;15.80;72.50;;;;;;5047405;28;20082;-74
2023/10/29 00:07:26;;;;;;;0.40;0.40;;;15.80;72.60;;;;;;5050947;28;20465;-75
2023/10/29 00:09:52;;;;;;;0.40;0.40;;;15.80;72.60;;;;;;5051722;28;20082;-74
2023/10/29 00:12:17;;;;;;;0.40;0.40;;;15.80;72.60;;;;;;5052395;28;20087;-74
2023/10/29 00:14:43;;;;;;;0.50;0.50;;;15.80;72.50;;;;;;5051261;28;20476;-80
2023/10/29 00:17:08;;;;;;;0.43;0.43;;;15.90;72.50;;;;;;5052688;28;20043;-80
2023/10/29 00:19:34;;;;;;;0.40;0.40;;;15.90;72.60;;;;;;5051083;28;20104;-80
2023/10/29 00:22:00;;;;;;;0.40;0.40;;;16.00;72.60;;;;;;5052457;28;20376;-78
2023/10/29 00:24:25;;;;;;;0.40;0.40;;;16.00;72.50;;;;;;5050674;28;20029;-77
2023/10/29 00:26:51;;;;;;;0.47;0.47;;;16.00;72.50;;;;;;5043039;28;20025;-79
2023/10/29 00:29:16;;;;;;;0.32;0.32;;;16.00;72.50;;;;;;5049489;28;20029;-79
2023/10/29 00:31:42;;;;;;;0.45;0.45;;;16.00;72.60;;;;;;5052188;28;20048;-79
2023/10/29 00:34:07;;;;;;;0.40;0.40;;;16.00;72.50;;;;;;5050101;28;20028;-80
2023/10/29 00:36:33;;;;;;;0.30;0.30;;;16.00;72.50;;;;;;5052192;28;20114;-80
2023/10/29 00:38:58;;;;;;;0.40;0.40;;;16.00;72.50;;;;;;5049175;28;20072;-81
2023/10/29 00:41:25;;;;;;;0.40;0.40;;;16.00;72.50;;;;;;5050597;28;20056;-81
2023/10/29 00:43:51;;;;;;;0.43;0.43;;;16.00;72.40;;;;;;5048851;28;20032;-81
2023/10/29 00:46:16;;;;;;;0.40;0.40;;;16.00;72.40;;;;;;5052129;28;20477;-81
2023/10/29 00:48:43;;;;;;;0.40;0.40;;;16.00;72.40;;;;;;5050254;28;20048;-80
2023/10/29 00:51:09;;;;;;;0.40;0.40;;;16.00;72.50;;;;;;5052089;28;20033;-82
2023/10/29 00:53:35;;;;;;;0.50;0.50;;;16.10;72.50;;;;;;5048632;28;20478;-82
2023/10/29 00:56:02;;;;;;;0.73;0.57;;;16.10;72.60;;;;;;5052341;28;20550;-81
2023/10/29 00:58:27;;;;;;;1.17;0.82;;;16.10;72.50;;;;;;5048408;28;20480;-78
2023/10/29 01:00:53;;;;;;;0.40;0.40;;;16.10;72.40;;;;;;5052699;28;20021;-79
2023/10/29 01:03:19;;;;;;;0.40;0.40;;;16.10;72.40;;;;;;5044787;28;20450;-77
2023/10/29 01:05:45;;;;;;;0.47;0.47;;;16.10;72.30;;;;;;5052180;28;20021;-78
2023/10/29 01:08:11;;;;;;;0.40;0.40;;;16.10;72.40;;;;;;5049837;28;20059;-77
2023/10/29 01:10:38;;;;;;;0.40;0.40;;;16.10;72.40;;;;;;5050799;28;20556;-78
2023/10/29 01:13:04;;;;;;;0.40;0.40;;;16.10;72.40;;;;;;5050155;28;20112;-78
2023/10/29 01:15:29;;;;;;;0.47;0.47;;;16.10;72.40;;;;;;5050249;28;20461;-80
2023/10/29 01:17:55;;;;;;;0.40;0.40;;;16.10;72.40;;;;;;5049535;28;20119;-81
2023/10/29 01:20:21;;;;;;;0.47;0.47;;;16.10;72.50;;;;;;5051522;28;20041;-82
2023/10/29 01:22:47;;;;;;;0.40;0.40;;;16.10;72.50;;;;;;5051799;28;20040;-83
2023/10/29 01:25:13;;;;;;;0.40;0.40;;;16.10;72.40;;;;;;5048377;28;20028;-82
2023/10/29 01:27:38;;;;;;;0.40;0.40;;;16.10;72.50;;;;;;5039685;28;20036;-83
2023/10/29 01:30:07;;;;;;;0.30;0.30;;;16.10;72.50;;;;;;5051557;28;20069;-82
2023/10/29 01:32:33;;;;;;;0.50;0.50;;;16.10;72.50;;;;;;5049544;28;20082;-72
2023/10/29 01:34:58;;;;;;;0.40;0.40;;;16.10;72.60;;;;;;5047237;28;20502;-73
2023/10/29 01:37:24;;;;;;;0.40;0.40;;;16.20;72.60;;;;;;5050405;28;20029;-73
2023/10/29 01:39:50;;;;;;;0.40;0.40;;;16.20;72.60;;;;;;5050280;28;20469;-74
2023/10/29 01:42:16;;;;;;;0.40;0.40;;;16.20;72.70;;;;;;5050738;28;20024;-73
2023/10/29 01:44:41;;;;;;;0.40;0.40;;;16.20;72.60;;;;;;5048356;28;20528;-73
2023/10/29 01:47:07;;;;;;;0.40;0.40;;;16.30;72.50;;;;;;5050741;28;20021;-73
2023/10/29 01:49:33;;;;;;;0.40;0.40;;;16.30;72.50;;;;;;5047819;28;20423;-73
2023/10/29 01:51:59;;;;;;;0.50;0.50;;;16.30;72.40;;;;;;5050637;28;20021;-72
2023/10/29 01:54:24;;;;;;;0.40;0.40;;;16.30;72.40;;;;;;5048220;28;20087;-73
2023/10/29 01:56:50;;;;;;;0.82;0.82;;;16.30;72.40;;;;;;5049844;28;20435;-72
2023/10/29 01:59:15;;;;;;;0.40;0.40;;;16.30;72.40;;;;;;5048863;28;20429;-72
2023/10/29 02:01:42;;;;;;;0.38;0.38;;;16.30;72.40;;;;;;5050750;28;20029;-72
2023/10/29 02:04:09;;;;;;;0.40;0.40;;;16.30;72.40;;;;;;5046604;28;20389;-72
2023/10/29 02:06:39;;;;;;;0.40;0.40;;;16.40;72.40;;;;;;5050880;28;20029;-72
2023/10/29 02:09:05;;;;;;;0.40;0.40;;;16.40;72.40;;;;;;5049134;28;20044;-72
2023/10/29 02:11:31;;;;;;;0.55;0.55;;;16.40;72.40;;;;;;5051086;28;20043;-73
2023/10/29 02:13:56;;;;;;;0.40;0.40;;;16.40;72.50;;;;;;5047842;28;20099;-73
2023/10/29 02:16:23;;;;;;;0.40;0.40;;;16.50;72.40;;;;;;5051267;28;20035;-72
2023/10/29 02:18:49;;;;;;;0.40;0.40;;;16.50;72.40;;;;;;5048626;28;20083;-72
2023/10/29 02:21:14;;;;;;;0.40;0.40;;;16.50;72.40;;;;;;5050856;28;20028;-71
2023/10/29 02:23:40;;;;;;;0.40;0.40;;;16.50;72.30;;;;;;5045671;28;20499;-71
2023/10/29 02:26:06;;;;;;;0.43;0.43;;;16.60;72.30;;;;;;5050891;28;20056;-71
2023/10/29 02:28:31;;;;;;;0.40;0.40;;;16.50;72.30;;;;;;5048249;28;20104;-71
2023/10/29 02:30:57;;;;;;;0.40;0.40;;;16.50;72.10;;;;;;5050993;28;20071;-72
2023/10/29 02:33:23;;;;;;;0.40;0.40;;;16.50;72.20;;;;;;5048231;28;20032;-73
2023/10/29 02:35:49;;;;;;;0.38;0.38;;;16.50;72.20;;;;;;5048863;28;20033;-72
2023/10/29 02:38:16;;;;;;;0.40;0.40;;;16.50;72.30;;;;;;5048032;28;20388;-72
2023/10/29 02:40:42;;;;;;;0.50;0.50;;;16.50;72.30;;;;;;5050780;28;20021;-72
2023/10/29 02:43:08;;;;;;;0.40;0.40;;;16.50;72.40;;;;;;5049995;28;20094;-72
2023/10/29 02:45:34;;;;;;;0.40;0.40;;;16.50;72.40;;;;;;5046428;28;20475;-72
2023/10/29 02:47:59;;;;;;;0.40;0.40;;;16.60;72.40;;;;;;5047940;28;20029;-72
2023/10/29 02:50:25;;;;;;;0.50;0.50;;;16.60;72.50;;;;;;5050906;28;20041;-72
2023/10/29 02:52:50;;;;;;;0.70;0.70;;;16.60;72.50;;;;;;5048626;28;20055;-71
2023/10/29 02:55:16;;;;;;;0.40;0.40;;;16.60;72.50;;;;;;5046055;28;20461;-72
2023/10/29 02:57:41;;;;;;;0.50;0.50;;;16.70;72.40;;;;;;5048766;28;20480;-72
2023/10/29 03:00:09;;;;;;;0.40;0.40;;;16.70;72.50;;;;;;5054176;28;20025;-72
2023/10/29 03:02:34;;;;;;;0.40;0.40;;;16.70;72.50;;;;;;5053521;28;20049;-72
2023/10/29 03:05:00;;;;;;;0.40;0.40;;;16.70;72.50;;;;;;5045177;28;20566;-72
2023/10/29 03:07:26;;;;;;;0.40;0.40;;;16.70;72.40;;;;;;5054089;28;20039;-73
2023/10/29 03:09:51;;;;;;;0.38;0.38;;;16.70;72.40;;;;;;5052447;28;20032;-71
2023/10/29 03:12:17;;;;;;;0.50;0.50;;;16.70;72.40;;;;;;5054046;28;20029;-71
2023/10/29 03:14:42;;;;;;;0.40;0.40;;;16.70;72.50;;;;;;5049178;28;20067;-71
2023/10/29 03:17:08;;;;;;;0.43;0.43;;;16.70;72.50;;;;;;5054308;28;20419;-71
2023/10/29 03:19:33;;;;;;;0.40;0.40;;;16.80;72.60;;;;;;5052516;28;20032;-72
2023/10/29 03:22:01;;;;;;;0.50;0.50;;;16.90;72.70;;;;;;5052793;28;20029;-71
2023/10/29 03:24:27;;;;;;;0.70;0.70;;;16.90;72.50;;;;;;5053634;28;20105;-72
2023/10/29 03:26:52;;;;;;;0.40;0.40;;;16.90;72.30;;;;;;5041684;28;20112;-72
2023/10/29 03:29:18;;;;;;;0.30;0.30;;;16.90;72.20;;;;;;5032343;28;20021;-72
2023/10/29 03:31:43;;;;;;;0.55;0.55;;;16.90;72.10;;;;;;5032467;28;20072;-72
2023/10/29 03:34:11;;;;;;;0.40;0.40;;;16.90;72.00;;;;;;5033745;28;20029;-72
2023/10/29 03:36:36;;;;;;;0.43;0.43;;;16.90;72.20;;;;;;5033741;28;20095;-73
2023/10/29 03:39:02;;;;;;;0.30;0.30;;;16.80;72.20;;;;;;5033582;28;20021;-73
2023/10/29 03:41:28;;;;;;;0.38;0.38;;;16.90;72.10;;;;;;5033731;28;20469;-73
2023/10/29 03:43:53;;;;;;;0.60;0.60;;;16.80;72.00;;;;;;5033405;28;20029;-73
2023/10/29 03:46:19;;;;;;;0.40;0.40;;;16.80;72.00;;;;;;5033635;28;20025;-73
2023/10/29 03:48:45;;;;;;;0.50;0.50;;;16.80;72.00;;;;;;5033276;28;20037;-73
2023/10/29 03:51:12;;;;;;;0.40;0.40;;;16.80;72.00;;;;;;5032029;28;20143;-73
2023/10/29 03:53:38;;;;;;;0.55;0.55;;;16.80;72.00;;;;;;5031881;28;20029;-73
2023/10/29 03:56:04;;;;;;;0.35;0.35;;;16.80;72.00;;;;;;5032132;28;20044;-73
2023/10/29 03:58:29;;;;;;;0.40;0.40;;;16.80;72.10;;;;;;5033045;28;20075;-73
2023/10/29 04:00:56;;;;;;;0.50;0.50;;;16.80;72.10;;;;;;5031884;28;20083;-73
2023/10/29 04:03:22;;;;;;;0.43;0.43;;;16.80;72.00;;;;;;5037594;28;20102;-72
2023/10/29 04:05:48;;;;;;;0.40;0.40;;;16.80;72.00;;;;;;5052953;28;20029;-72
2023/10/29 04:08:13;;;;;;;0.50;0.50;;;16.80;72.10;;;;;;5052878;28;20064;-72
2023/10/29 04:10:39;;;;;;;0.50;0.50;;;16.80;72.20;;;;;;5051662;28;20032;-72
2023/10/29 04:13:05;;;;;;;0.40;0.40;;;16.80;72.30;;;;;;5051541;28;20024;-72
2023/10/29 04:15:30;;;;;;;0.40;0.40;;;16.80;72.50;;;;;;5052716;28;20032;-72
2023/10/29 04:17:56;;;;;;;0.30;0.30;;;16.90;72.60;;;;;;5052436;28;20477;-72
2023/10/29 04:20:23;;;;;;;0.50;0.50;;;17.00;72.60;;;;;;5052590;28;20424;-72
2023/10/29 04:22:49;;;;;;;0.40;0.40;;;17.00;72.50;;;;;;5052794;28;20025;-81
2023/10/29 04:25:14;;;;;;;0.40;0.40;;;17.10;72.40;;;;;;5053007;28;20029;-81
2023/10/29 04:27:40;;;;;;;0.40;0.40;;;17.00;72.20;;;;;;5034317;28;20099;-82
2023/10/29 04:30:06;;;;;;;0.47;0.47;;;17.00;72.20;;;;;;5033085;28;20028;-81
2023/10/29 04:32:32;;;;;;;0.40;0.40;;;17.00;72.10;;;;;;5033470;28;20071;-81
2023/10/29 04:34:57;;;;;;;0.43;0.43;;;17.00;72.10;;;;;;5032886;28;20037;-81
2023/10/29 04:37:23;;;;;;;0.40;0.40;;;17.00;72.00;;;;;;5033300;28;20033;-81
2023/10/29 04:39:50;;;;;;;0.45;0.45;;;17.00;72.00;;;;;;5031529;28;20025;-80
2023/10/29 04:42:15;;;;;;;0.40;0.40;;;17.00;71.90;;;;;;5033442;28;20028;-81
2023/10/29 04:44:42;;;;;;;0.45;0.45;;;17.00;72.00;;;;;;5031466;28;20116;-81
2023/10/29 04:47:07;;;;;;;0.40;0.40;;;16.90;71.90;;;;;;5033195;28;20095;-82
2023/10/29 04:49:33;;;;;;;0.40;0.40;;;16.90;71.90;;;;;;5032767;28;20037;-82
2023/10/29 04:51:59;;;;;;;0.40;0.40;;;16.90;72.00;;;;;;5033008;28;20041;-83
2023/10/29 04:54:24;;;;;;;0.45;0.45;;;16.90;71.90;;;;;;5032709;28;20048;-82
2023/10/29 04:56:50;;;;;;;0.50;0.50;;;16.90;71.90;;;;;;5031468;28;20371;-82
2023/10/29 04:59:16;;;;;;;2.17;1.15;;;16.90;71.90;;;;;;5032365;28;20025;-82
2023/10/29 05:01:41;;;;;;;0.50;0.50;;;16.90;72.10;;;;;;5032916;28;20544;-82
2023/10/29 05:04:07;;;;;;;0.50;0.50;;;16.90;72.10;;;;;;5044545;28;20025;-82
2023/10/29 05:06:32;;;;;;;0.57;0.57;;;17.00;72.20;;;;;;5052539;28;20107;-81
2023/10/29 05:08:58;;;;;;;0.50;0.50;;;17.00;72.40;;;;;;5052215;28;20548;-80
2023/10/29 05:11:24;;;;;;;0.40;0.40;;;17.10;72.30;;;;;;5052764;28;20104;-81
2023/10/29 05:13:49;;;;;;;0.50;0.50;;;17.10;72.20;;;;;;5052281;28;20029;-81
2023/10/29 05:16:15;;;;;;;0.32;0.32;;;17.10;72.10;;;;;;5052321;28;20059;-81
2023/10/29 05:18:40;;;;;;;0.45;0.45;;;17.10;72.10;;;;;;5052232;28;20432;-82
2023/10/29 05:21:07;;;;;;;0.55;0.55;;;17.10;72.10;;;;;;5051755;28;20099;-83
2023/10/29 05:23:34;;;;;;;0.65;0.65;;;17.10;71.90;;;;;;5052085;28;20108;-81
2023/10/29 05:25:59;;;;;;;0.40;0.40;;;17.10;72.00;;;;;;5047054;28;20037;-81
2023/10/29 05:28:25;;;;;;;0.40;0.40;;;17.10;72.10;;;;;;5032486;28;20030;-82
2023/10/29 05:30:51;;;;;;;0.50;0.50;;;17.10;72.10;;;;;;5031916;28;20116;-81
2023/10/29 05:33:16;;;;;;;0.43;0.43;;;17.20;72.10;;;;;;5032262;28;20104;-81
2023/10/29 05:35:42;;;;;;;0.40;0.40;;;17.20;72.20;;;;;;5032301;28;20116;-81
2023/10/29 05:38:09;;;;;;;0.40;0.40;;;17.30;72.30;;;;;;5031556;28;20033;-80
2023/10/29 05:40:34;;;;;;;0.40;0.40;;;17.20;72.20;;;;;;5032134;28;20029;-79
2023/10/29 05:43:00;;;;;;;0.40;0.40;;;17.20;72.10;;;;;;5031754;28;20059;-76
2023/10/29 05:45:27;;;;;;;0.50;0.50;;;17.30;72.10;;;;;;5032124;28;20026;-80
2023/10/29 05:47:52;;;;;;;0.40;0.40;;;17.20;72.10;;;;;;5031677;28;20049;-80
2023/10/29 05:50:18;;;;;;;0.50;0.50;;;17.30;71.90;;;;;;5031778;28;20448;-80
2023/10/29 05:52:45;;;;;;;0.50;0.50;;;17.20;71.90;;;;;;5031669;28;20032;-80
2023/10/29 05:55:11;;;;;;;0.40;0.40;;;17.20;72.00;;;;;;5031620;28;20036;-80
2023/10/29 05:57:36;;;;;;;0.40;0.40;;;17.20;71.80;;;;;;5031564;28;20105;-82
2023/10/29 06:00:04;;;;;;;0.73;0.73;;;17.20;72.00;;;;;;5030362;28;20034;-79
2023/10/29 06:02:29;;;;;;;0.63;0.63;;;17.20;72.00;;;;;;5031856;28;20018;-80
2023/10/29 06:04:55;;;;;;;0.45;0.45;;;17.20;71.90;;;;;;5048737;28;20472;-79
2023/10/29 06:07:20;;;;;;;0.40;0.40;;;17.20;72.10;;;;;;5051548;28;20033;-80
2023/10/29 06:09:47;;;;;;;0.50;0.50;;;17.30;72.00;;;;;;5051318;28;20075;-81
2023/10/29 06:12:13;;;;;;;0.40;0.40;;;17.30;72.00;;;;;;5050220;28;20469;-79
2023/10/29 06:14:38;;;;;;;0.40;0.40;;;17.30;72.30;;;;;;5051183;28;20066;-80
2023/10/29 06:17:04;;;;;;;0.40;0.40;;;17.40;72.30;;;;;;5051265;28;20029;-80
2023/10/29 06:19:32;;;;;;;0.40;0.40;;;17.40;72.20;;;;;;5051159;28;20438;-79
2023/10/29 06:21:57;;;;;;;0.40;0.40;;;17.50;72.10;;;;;;5051189;28;20029;-79
2023/10/29 06:24:23;;;;;;;0.40;0.40;;;17.50;72.00;;;;;;5050031;28;20040;-80
2023/10/29 06:26:48;;;;;;;0.43;0.43;;;17.50;72.00;;;;;;5039287;28;20034;-80
2023/10/29 06:29:14;;;;;;;0.50;0.50;;;17.50;72.00;;;;;;5031338;28;20092;-79
2023/10/29 06:31:39;;;;;;;0.40;0.40;;;17.50;71.90;;;;;;5031484;28;20038;-79
2023/10/29 06:34:05;;;;;;;0.40;0.40;;;17.50;72.00;;;;;;5034685;28;20033;-78
2023/10/29 06:36:31;;;;;;;0.50;0.50;;;17.50;72.00;;;;;;5034907;28;20497;-79
2023/10/29 06:38:57;;;;;;;0.43;0.43;;;17.60;72.20;;;;;;5035179;28;20470;-78
2023/10/29 06:41:22;;;;;;;0.43;0.43;;;17.60;72.10;;;;;;5034748;28;20093;-71
2023/10/29 06:43:48;;;;;;;0.40;0.40;;;17.70;72.20;;;;;;5034754;28;20034;-70
2023/10/29 06:46:17;;;;;;;0.40;0.40;;;17.70;72.10;;;;;;5034598;28;20393;-70
2023/10/29 06:48:43;;;;;;;0.75;0.47;;;17.70;71.90;;;;;;5034679;28;20095;-70
2023/10/29 06:51:10;;;;;;;0.40;0.40;;;17.70;71.90;;;;;;5032918;28;20029;-70
2023/10/29 06:53:39;;;;;;;0.40;0.40;;;17.70;71.70;;;;;;5034569;28;20029;-70
2023/10/29 06:56:05;;;;;;;0.40;0.40;;;17.70;71.70;;;;;;5034172;28;20049;-70
2023/10/29 06:58:31;;;;;;;0.40;0.40;;;17.70;71.90;;;;;;5032892;28;20030;-70
2023/10/29 07:01:08;;;;;;;0.77;0.77;;;17.70;71.80;;;;;;5034223;28;20469;-70
2023/10/29 07:03:34;;;;;;;0.40;0.40;;;17.80;71.80;;;;;;5041580;28;20366;-70
2023/10/29 07:06:07;;;;;;;0.40;0.40;;;17.80;71.90;;;;;;5054120;28;20562;-70
2023/10/29 07:08:33;;;;;;;0.50;0.50;;;17.80;71.70;;;;;;5054341;28;20047;-70
2023/10/29 07:11:00;;;;;;;0.50;0.50;;;17.80;71.80;;;;;;5053836;28;20025;-71
2023/10/29 07:13:26;;;;;;;0.40;0.40;;;17.90;71.70;;;;;;5053965;28;20041;-71
2023/10/29 07:15:53;;;;;;;0.70;0.70;;;17.90;71.70;;;;;;5053766;28;20036;-71
2023/10/29 07:18:18;;;;;;;0.40;0.40;;;18.00;71.90;;;;;;5054148;28;20123;-70
2023/10/29 07:20:44;;;;;;;0.50;0.50;;;18.00;71.90;;;;;;5053740;28;20540;-70
2023/10/29 07:23:09;;;;;;;0.40;0.40;;;18.10;71.90;;;;;;5053851;28;20053;-70
2023/10/29 07:25:35;;;;;;;0.47;0.47;;;18.10;71.70;;;;;;5051963;28;20029;-70
2023/10/29 07:28:01;;;;;;;0.60;0.60;;;18.20;71.60;;;;;;5033814;28;20042;-70
2023/10/29 07:30:27;;;;;;;0.40;0.40;;;18.20;71.60;;;;;;5032362;28;20037;-71
2023/10/29 07:32:53;;;;;;;0.60;0.60;;;18.20;71.40;;;;;;5034041;28;20473;-70
2023/10/29 07:35:18;;;;;;;0.40;0.40;;;18.20;71.10;;;;;;5033799;28;20083;-70
2023/10/29 07:37:44;;;;;;;0.40;0.40;;;18.20;71.00;;;;;;5033560;28;20049;-70
2023/10/29 07:40:09;;;;;;;0.50;0.50;;;18.20;71.10;;;;;;5033389;28;20025;-71
2023/10/29 07:42:35;;;;;;;0.40;0.40;;;18.20;70.90;;;;;;5032208;28;20029;-70
2023/10/29 07:45:01;;;;;;;0.40;0.40;;;18.20;71.00;;;;;;5033288;28;20033;-71
2023/10/29 07:47:26;;;;;;;0.50;0.50;;;18.20;70.90;;;;;;5033858;28;20037;-72
2023/10/29 07:49:52;;;;;;;0.52;0.52;;;18.20;71.00;;;;;;5036233;28;20032;-70
2023/10/29 07:52:17;;;;;;;0.40;0.40;;;18.10;71.00;;;;;;5038178;28;20187;-71
2023/10/29 07:54:43;;;;;;;0.40;0.40;;;18.20;71.30;;;;;;5033753;28;20127;-70
2023/10/29 07:57:09;;;;;;;0.40;0.40;;;18.20;71.30;;;;;;5053120;28;20528;-70
2023/10/29 07:59:34;;;;;;;0.50;0.50;;;18.30;71.20;;;;;;5052309;28;20524;-70
2023/10/29 08:02:00;;;;;;;0.45;0.45;;;18.30;71.50;;;;;;5052840;28;20013;-72
2023/10/29 08:04:29;;;;;;;0.60;0.60;;;18.40;71.40;;;;;;5055548;28;20071;-70
2023/10/29 08:06:55;;;;;;;0.50;0.50;;;18.50;71.20;;;;;;5052381;28;20503;-70
2023/10/29 08:09:21;;;;;;;0.40;0.40;;;18.50;71.00;;;;;;5038684;28;20037;-70
2023/10/29 08:11:48;;;;;;;0.38;0.38;;;18.70;70.80;;;;;;5032882;28;20500;-71
2023/10/29 08:14:13;;;;;;;0.40;0.40;;;18.60;71.00;;;;;;5048010;28;20471;-71
2023/10/29 08:16:41;;;;;;;0.50;0.50;;;18.70;71.20;;;;;;5039508;28;20104;-70
2023/10/29 08:19:07;;;;;;;0.40;0.40;;;18.80;71.20;;;;;;5044108;28;20484;-71
2023/10/29 08:21:33;;;;;;;0.40;0.40;;;18.90;70.90;;;;;;5036520;28;20033;-71
2023/10/29 08:23:58;;;;;;;0.40;0.40;;;19.00;71.30;;;;;;5036282;28;20025;-72
2023/10/29 08:26:26;;;;;;;0.32;0.32;;;19.10;70.80;;;;;;5039041;28;20572;-70
2023/10/29 08:28:52;;;;;;;0.50;0.50;;;19.20;70.50;;;;;;5038451;28;20034;-70
2023/10/29 08:31:18;;;;;;;0.60;0.60;;;19.20;70.40;;;;;;5044436;28;20033;-70
2023/10/29 08:33:43;;;;;;;0.50;0.50;;;19.20;70.20;;;;;;5035813;28;20421;-70
2023/10/29 08:36:09;;;;;;;0.47;0.47;;;19.20;70.10;;;;;;5032329;28;20116;-70
2023/10/29 08:38:35;;;;;;;0.50;0.50;;;19.30;70.40;;;;;;5039653;28;20041;-72
2023/10/29 08:41:01;;;;;;;0.50;0.50;;;19.50;70.80;;;;;;5032711;28;20289;-70
2023/10/29 08:43:26;;;;;;;0.45;0.45;;;19.70;71.10;;;;;;5036348;28;20032;-70
2023/10/29 08:45:52;;;;;;;0.47;0.47;;;20.00;72.70;;;;;;5052147;28;20036;-69
2023/10/29 08:48:17;;;;;;;0.45;0.45;;;20.20;71.00;;;;;;5047674;28;20028;-70
2023/10/29 08:50:43;;;;;;;0.50;0.50;;;20.20;70.80;;;;;;5050618;28;20052;-69
2023/10/29 08:53:08;;;;;;;0.40;0.40;;;20.20;70.20;;;;;;5035559;28;20474;-70
2023/10/29 08:55:37;;;;;;;0.68;0.68;;;20.20;70.10;;;;;;5050412;28;20389;-70
2023/10/29 08:58:03;;;;;;;0.55;0.55;;;20.20;69.40;;;;;;5040864;28;20503;-70
2023/10/29 09:00:29;;;;;;;0.40;0.40;;;20.20;69.10;;;;;;5049888;28;20025;-71
2023/10/29 09:02:55;;;;;;;0.40;0.40;;;20.10;69.60;;;;;;5042671;28;20505;-71
2023/10/29 09:05:20;;;;;;;0.40;0.40;;;20.10;69.90;;;;;;5042866;28;20043;-70
2023/10/29 09:07:46;;;;;;;0.40;0.40;;;20.20;70.10;;;;;;5030083;28;20197;-71
2023/10/29 09:10:11;;;;;;;0.40;0.40;;;20.30;69.60;;;;;;5048243;28;20037;-70
2023/10/29 09:12:37;;;;;;;0.40;0.40;;;20.30;69.90;;;;;;5049853;28;20112;-70
2023/10/29 09:15:03;;;;;;;0.50;0.50;;;20.40;69.50;;;;;;5044075;28;20029;-71
2023/10/29 09:17:28;;;;;;;4.95;0.88;;;20.40;69.20;;;;;;5035275;28;20033;-71
2023/10/29 09:19:54;;;;;;;0.50;0.50;;;20.50;70.20;;;;;;5041475;28;20028;-72
2023/10/29 09:22:20;;;;;;;0.40;0.40;;;20.60;69.20;;;;;;5038067;28;20040;-71
2023/10/29 09:24:48;;;;;;;0.50;0.50;;;20.60;69.00;;;;;;5044660;28;20584;-70
2023/10/29 09:27:13;;;;;;;3.50;0.85;;;20.70;68.40;;;;;;5043306;28;20460;-71
2023/10/29 09:29:41;;;;;;;0.40;0.40;;;20.80;69.30;;;;;;5048378;28;20031;-70
2023/10/29 09:32:07;;;;;;;0.40;0.40;;;20.80;68.50;;;;;;5030707;28;20024;-70
2023/10/29 09:34:34;;;;;;;0.40;0.40;;;21.00;69.30;;;;;;5033671;28;20031;-71
2023/10/29 09:37:00;;;;;;;0.40;0.40;;;21.10;67.90;;;;;;5039600;28;20027;-70
2023/10/29 09:39:26;;;;;;;0.50;0.50;;;21.00;67.80;;;;;;5033817;28;20481;-70
2023/10/29 09:41:55;;;;;;;0.40;0.40;;;21.00;68.30;;;;;;5040821;28;20028;-72
2023/10/29 09:44:21;;;;;;;0.40;0.40;;;21.00;68.70;;;;;;5041503;28;20040;-70
2023/10/29 09:46:57;;;;;;;0.50;0.50;;;21.00;68.00;;;;;;5046546;28;20025;-70
2023/10/29 09:49:22;;;;;;;0.40;0.40;;;21.10;67.70;;;;;;5039203;28;20136;-70
2023/10/29 09:51:48;;;;;;;0.40;0.40;;;21.00;68.70;;;;;;5040889;28;20108;-70
2023/10/29 09:54:14;;;;;;;0.47;0.47;;;21.00;67.20;;;;;;5035812;28;20110;-71
2023/10/29 09:56:39;;;;;;;0.50;0.50;;;21.10;67.20;;;;;;5044956;28;20025;-70
2023/10/29 09:59:06;;;;;;;0.50;0.50;;;21.00;66.40;;;;;;5039210;28;20078;-72
2023/10/29 10:01:32;;;;;;;0.40;0.40;;;21.00;67.50;;;;;;5041140;28;20366;-70
2023/10/29 10:03:58;;;;;;;0.40;0.40;;;21.00;67.70;;;;;;5046465;28;20025;-71
2023/10/29 10:06:25;;;;;;;0.40;0.40;;;21.10;67.70;;;;;;5044878;28;20021;-70
2023/10/29 10:09:00;;;;;;;0.40;0.40;;;21.10;67.20;;;;;;5043076;28;20063;-71
2023/10/29 10:11:27;;;;;;;1.20;0.70;;;21.10;68.30;;;;;;5042251;28;20033;-71
2023/10/29 10:13:53;;;;;;;0.40;0.40;;;21.20;68.40;;;;;;5050590;28;20057;-71
2023/10/29 10:16:20;;;;;;;0.40;0.40;;;21.30;68.80;;;;;;5044110;28;20098;-71
2023/10/29 10:18:56;;;;;;;0.40;0.40;;;21.40;68.80;;;;;;5050932;28;20372;-69
2023/10/29 10:21:24;;;;;;;0.40;0.40;;;21.60;69.50;;;;;;5052972;28;20136;-70
2023/10/29 10:23:57;;;;;;;0.30;0.30;;;21.70;69.00;;;;;;5041663;28;20032;-70
2023/10/29 10:26:31;;;;;;;0.40;0.40;;;21.80;67.30;;;;;;5052662;28;20017;-70
2023/10/29 10:28:59;;;;;;;0.50;0.50;;;21.80;64.30;;;;;;5050865;28;20594;-70
2023/10/29 10:31:27;;;;;;;0.40;0.40;;;21.60;65.40;;;;;;5050565;28;20032;-70
2023/10/29 10:34:10;;;;;;;0.40;0.40;;;21.50;64.60;;;;;;5032395;28;20057;-69
2023/10/29 10:36:36;;;;;;;0.40;0.40;;;21.50;65.10;;;;;;5038592;28;20033;-71
2023/10/29 10:39:02;;;;;;;0.43;0.43;;;21.40;66.20;;;;;;5040138;28;20041;-70
2023/10/29 10:41:45;;;;;;;0.40;0.40;;;21.40;66.20;;;;;;5037385;28;20369;-70
2023/10/29 10:44:15;;;;;;;0.40;0.40;;;21.40;67.60;;;;;;5037122;28;20334;-70
2023/10/29 10:46:49;;;;;;;0.77;0.77;;;21.40;68.00;;;;;;5036350;28;20037;-70
2023/10/29 10:49:15;;;;;;;0.50;0.50;;;21.50;67.80;;;;;;5042734;28;20088;-71
2023/10/29 10:51:41;;;;;;;0.40;0.40;;;21.60;69.40;;;;;;5036893;28;20493;-71
2023/10/29 10:54:07;;;;;;;0.52;0.52;;;22.00;70.50;;;;;;5044695;28;20029;-71
2023/10/29 10:56:35;;;;;;;6.53;0.73;;;22.30;71.90;;;;;;5036831;28;20437;-71
2023/10/29 10:59:06;;;;;;;0.47;0.47;;;22.70;71.20;;;;;;5042484;28;20051;-70
2023/10/29 11:01:35;;;;;;;0.50;0.50;;;22.90;69.60;;;;;;5033490;28;20029;-70
2023/10/29 11:04:03;;;;;;;0.40;0.40;;;23.20;70.50;;;;;;5041356;28;20557;-72
2023/10/29 11:06:29;;;;;;;0.40;0.40;;;23.40;69.10;;;;;;5044496;28;20027;-72
2023/10/29 11:08:55;;;;;;;0.50;0.50;;;23.60;68.40;;;;;;5040414;28;20472;-71
2023/10/29 11:11:24;;;;;;;0.50;0.50;;;23.70;66.80;;;;;;5033912;28;20044;-70
2023/10/29 11:14:06;;;;;;;0.40;0.40;;;23.80;66.00;;;;;;5040491;28;20037;-70
2023/10/29 11:16:32;;;;;;;0.43;0.43;;;23.80;63.80;;;;;;5046909;28;20120;-70
2023/10/29 11:18:57;;;;;;;0.77;0.77;;;23.80;63.60;;;;;;5042149;28;20116;-70
2023/10/29 11:21:31;;;;;;;0.45;0.45;;;23.70;63.20;;;;;;5047290;28;20033;-70
2023/10/29 11:24:22;;;;;;;0.60;0.60;;;23.40;61.50;;;;;;5037454;28;20051;-72
2023/10/29 11:26:48;;;;;;;0.40;0.40;;;23.20;63.40;;;;;;5044115;28;20033;-71
2023/10/29 11:29:43;;;;;;;0.40;0.40;;;23.10;64.20;;;;;;5038637;28;20041;-71
2023/10/29 11:32:25;;;;;;;0.50;0.50;;;23.10;61.50;;;;;;5038625;28;20489;-71
2023/10/29 11:35:20;;;;;;;1.08;1.05;;;23.10;63.10;;;;;;5041370;28;20470;-71
2023/10/29 11:37:47;;;;;;;0.50;0.50;;;23.10;61.50;;;;;;5042144;28;20119;-71
2023/10/29 11:40:31;;;;;;;0.30;0.30;;;23.00;63.70;;;;;;5044078;28;20465;-70
2023/10/29 11:43:14;;;;;;;0.40;0.40;;;22.90;63.60;;;;;;5041789;28;20040;-70
2023/10/29 11:45:40;;;;;;;0.50;0.50;;;22.80;62.10;;;;;;5034928;28;20025;-71
2023/10/29 11:48:06;;;;;;;0.43;0.43;;;22.70;60.50;;;;;;5040209;28;20120;-71
2023/10/29 11:50:32;;;;;;;0.32;0.32;;;22.60;61.30;;;;;;5047820;28;20425;-71
2023/10/29 11:52:57;;;;;;;0.40;0.40;;;22.50;61.10;;;;;;5041312;28;20041;-71
2023/10/29 11:55:27;;;;;;;0.50;0.50;;;22.40;61.60;;;;;;5039525;28;20169;-72
2023/10/29 11:57:54;;;;;;;0.50;0.50;;;22.40;61.40;;;;;;5040282;28;20043;-71
2023/10/29 12:00:21;;;;;;;0.50;0.50;;;22.40;62.80;;;;;;5045121;28;20061;-73
2023/10/29 12:02:47;;;;;;;1.65;1.17;;;22.50;63.60;;;;;;5028618;28;20036;-71
2023/10/29 12:05:15;;;;;;;0.40;0.40;;;22.70;64.20;;;;;;5037671;28;20029;-72
2023/10/29 12:07:40;;;;;;;0.50;0.50;;;22.90;62.60;;;;;;5038987;28;20470;-70
2023/10/29 12:10:06;;;;;;;0.45;0.45;;;23.00;62.20;;;;;;5038640;28;20027;-71
2023/10/29 12:12:33;;;;;;;0.68;0.68;;;23.10;60.70;;;;;;5047222;28;20030;-70
2023/10/29 12:14:59;;;;;;;0.60;0.60;;;23.00;60.10;;;;;;5045273;28;20028;-71
2023/10/29 12:17:24;;;;;;;0.50;0.50;;;22.80;61.10;;;;;;5038000;28;20443;-70
2023/10/29 12:19:50;;;;;;;0.50;0.50;;;22.60;59.10;;;;;;5043366;28;20029;-70
2023/10/29 12:22:19;;;;;;;0.40;0.40;;;22.30;60.50;;;;;;5034467;28;20017;-71
2023/10/29 12:24:48;;;;;;;0.40;0.40;;;22.20;60.50;;;;;;5046962;28;20047;-71
2023/10/29 12:27:14;;;;;;;0.50;0.50;;;22.00;60.90;;;;;;5040078;28;20017;-71
2023/10/29 12:29:40;;;;;;;0.50;0.50;;;22.00;61.80;;;;;;5047337;28;20025;-70
2023/10/29 12:32:17;;;;;;;0.50;0.50;;;22.00;62.50;;;;;;5041536;28;20026;-71
2023/10/29 12:34:57;;;;;;;0.40;0.40;;;22.00;62.30;;;;;;5040815;28;20032;-71
2023/10/29 12:37:28;;;;;;;0.45;0.45;;;22.00;61.00;;;;;;5045110;28;20123;-71
2023/10/29 12:39:56;;;;;;;0.40;0.40;;;22.00;60.80;;;;;;5041432;28;20024;-70
2023/10/29 12:42:47;;;;;;;0.45;0.45;;;22.00;60.50;;;;;;5043071;28;20091;-70
2023/10/29 12:45:23;;;;;;;0.40;0.40;;;22.00;62.20;;;;;;5042179;28;20079;-71